Appleton, MN

1:31 AM CST on December 11, 2016 (GMT -0600)
Appleton Municipal | | Change Station
Active Advisory: Winter Weather Advisory

Elev 1017 ft 45.23 °N, 96.00 °W | Updated 17 minutes ago

Light Snow
Light Snow
14 °F
Feels Like -1 °F
N
15
Wind Variable Wind from East

Today
High -- | Low -- °F
--% Chance of Precip.
Yesterday
High -- | Low -- °F
Precip. -- in
Pressure 29.99 in
Visibility 2.5 miles
Clouds Scattered Clouds 800 ft
Mostly Cloudy 1300 ft
Overcast 3800 ft
Windchill -1 °F
Dew Point 10 °F
Humidity 86%
Rainfall 0.00 in
Snow Depth Not available.
7:53 AM 4:41 PM
Waxing Gibbous, 89% visible
METAR KAQP 110714Z AUTO 10013KT 2 1/2SM -SN SCT008 BKN013 OVC038 M10/M12 A2999 RMK AO2
Pressure 29.99 in
Visibility 2.5 miles
Clouds Scattered Clouds 800 ft
Mostly Cloudy 1300 ft
Overcast 3800 ft
Windchill -1 °F
Dew Point 10 °F
Humidity 86%
Rainfall 0.00 in
Snow Depth Not available.
7:53 AM 4:41 PM
Waxing Gibbous, 89% visible
METAR KAQP 110714Z AUTO 10013KT 2 1/2SM -SN SCT008 BKN013 OVC038 M10/M12 A2999 RMK AO2

10-Day Weather Forecast

Almanac

Astronomy

Dec. 11, 2016 Rise Set
Actual Time
Civil Twilight
Nautical Twilight
Astronomical Twilight
Moon
Length of Visible Light
Length of Day
Tomorrow will be .
, % of the Moon is Illuminated

Today's Extremes

State Highs State Lows

Community

WunderPhotos

Upload Photos

1,956,707 photos uploaded!

WunderBlog® & News

Nearby

Air Quality

  Air Quality AQ Index Pollutant
Not available.

Snow Depth

Station Depth Elevation

Earthquake Activity

City Distance Mag. Time & Date
Minimum magnitude displayed is 2.5.

Coastal Water Temperatures

Place Temperature

Stations

Nearby Weather Stations

Station Location Temp. Windchill Dew Point Humidity Wind Precip. Elev Updated Type
                   

Watches & Warnings

Winter Weather Advisory
Issued: 11:12 PM CST Dec. 10, 2016 – National Weather Service

... Winter Weather Advisory remains in effect until noon CST
Sunday...

* expect snow to continue... diminishing around noon Sunday.

* Additional snow accumulations of 3 to 6 inches are expected.

* Look for reduced visibilities at times.

* Plan on difficult driving conditions.

Precautionary/preparedness actions...

A Winter Weather Advisory for snow means periods of snow will
cause primarily travel difficulties. Be prepared for snow covered
roads and limited visibilities... and use caution while driving.
The latest Road conditions for the state you are calling from can
be obtained by calling 5 1 1.